sensor_id;sensor_type;location;lat;lon;timestamp;P1;durP1;ratioP1;P2;durP2;ratioP2
77597;SDS011;66756;42.774;23.354;2023-02-22T00:00:27;12.90;;;5.28;;
77597;SDS011;66756;42.774;23.354;2023-02-22T00:03:07;10.45;;;3.88;;
77597;SDS011;66756;42.774;23.354;2023-02-22T00:05:35;9.60;;;4.97;;
77597;SDS011;66756;42.774;23.354;2023-02-22T00:08:03;14.75;;;6.55;;
77597;SDS011;66756;42.774;23.354;2023-02-22T00:10:33;15.35;;;6.18;;
77597;SDS011;66756;42.774;23.354;2023-02-22T00:12:59;10.98;;;4.85;;
77597;SDS011;66756;42.774;23.354;2023-02-22T00:15:25;10.55;;;4.75;;
77597;SDS011;66756;42.774;23.354;2023-02-22T00:17:51;11.25;;;5.45;;
77597;SDS011;66756;42.774;23.354;2023-02-22T00:20:18;11.18;;;5.53;;
77597;SDS011;66756;42.774;23.354;2023-02-22T00:22:45;11.23;;;4.88;;
77597;SDS011;66756;42.774;23.354;2023-02-22T00:25:12;10.05;;;5.10;;
77597;SDS011;66756;42.774;23.354;2023-02-22T00:27:39;10.23;;;4.90;;
77597;SDS011;66756;42.774;23.354;2023-02-22T00:30:05;16.95;;;7.53;;
77597;SDS011;66756;42.774;23.354;2023-02-22T00:32:33;10.75;;;5.53;;
77597;SDS011;66756;42.774;23.354;2023-02-22T00:34:59;14.18;;;6.13;;
77597;SDS011;66756;42.774;23.354;2023-02-22T00:37:26;14.98;;;6.75;;
77597;SDS011;66756;42.774;23.354;2023-02-22T00:39:55;16.20;;;6.78;;
77597;SDS011;66756;42.774;23.354;2023-02-22T00:42:21;11.25;;;5.38;;
77597;SDS011;66756;42.774;23.354;2023-02-22T00:44:47;9.77;;;5.30;;
77597;SDS011;66756;42.774;23.354;2023-02-22T00:47:13;16.77;;;6.53;;
77597;SDS011;66756;42.774;23.354;2023-02-22T00:49:39;16.65;;;7.03;;
77597;SDS011;66756;42.774;23.354;2023-02-22T00:52:05;34.80;;;15.48;;
77597;SDS011;66756;42.774;23.354;2023-02-22T00:54:33;13.73;;;6.15;;
77597;SDS011;66756;42.774;23.354;2023-02-22T00:56:59;11.80;;;5.03;;
77597;SDS011;66756;42.774;23.354;2023-02-22T00:59:25;13.40;;;6.13;;
77597;SDS011;66756;42.774;23.354;2023-02-22T01:01:51;11.23;;;5.07;;
77597;SDS011;66756;42.774;23.354;2023-02-22T01:04:18;10.80;;;5.25;;
77597;SDS011;66756;42.774;23.354;2023-02-22T01:06:44;9.35;;;5.05;;
77597;SDS011;66756;42.774;23.354;2023-02-22T01:09:10;9.98;;;5.20;;
77597;SDS011;66756;42.774;23.354;2023-02-22T01:11:36;12.63;;;5.85;;
77597;SDS011;66756;42.774;23.354;2023-02-22T01:14:02;14.38;;;7.45;;
77597;SDS011;66756;42.774;23.354;2023-02-22T01:16:28;16.85;;;6.70;;
77597;SDS011;66756;42.774;23.354;2023-02-22T01:18:54;16.30;;;8.68;;
77597;SDS011;66756;42.774;23.354;2023-02-22T01:21:20;15.43;;;7.93;;
77597;SDS011;66756;42.774;23.354;2023-02-22T01:23:46;14.73;;;6.47;;
77597;SDS011;66756;42.774;23.354;2023-02-22T01:26:12;14.25;;;5.97;;
77597;SDS011;66756;42.774;23.354;2023-02-22T01:28:38;10.40;;;5.70;;
77597;SDS011;66756;42.774;23.354;2023-02-22T01:31:04;10.40;;;6.07;;
77597;SDS011;66756;42.774;23.354;2023-02-22T01:33:30;14.27;;;6.95;;
77597;SDS011;66756;42.774;23.354;2023-02-22T01:35:57;11.55;;;6.05;;
77597;SDS011;66756;42.774;23.354;2023-02-22T01:38:24;13.25;;;6.20;;
77597;SDS011;66756;42.774;23.354;2023-02-22T01:40:50;10.55;;;6.18;;
77597;SDS011;66756;42.774;23.354;2023-02-22T01:43:23;11.63;;;5.57;;
77597;SDS011;66756;42.774;23.354;2023-02-22T01:46:06;12.77;;;5.93;;
77597;SDS011;66756;42.774;23.354;2023-02-22T01:48:43;12.68;;;6.38;;
77597;SDS011;66756;42.774;23.354;2023-02-22T01:51:11;13.63;;;5.32;;
77597;SDS011;66756;42.774;23.354;2023-02-22T01:53:46;16.50;;;8.10;;
77597;SDS011;66756;42.774;23.354;2023-02-22T01:56:13;12.88;;;6.32;;
77597;SDS011;66756;42.774;23.354;2023-02-22T01:58:40;14.82;;;7.82;;
77597;SDS011;66756;42.774;23.354;2023-02-22T02:01:07;13.90;;;7.47;;
77597;SDS011;66756;42.774;23.354;2023-02-22T02:03:34;14.13;;;6.97;;
77597;SDS011;66756;42.774;23.354;2023-02-22T02:06:03;15.05;;;7.47;;
77597;SDS011;66756;42.774;23.354;2023-02-22T02:08:32;12.40;;;5.78;;
77597;SDS011;66756;42.774;23.354;2023-02-22T02:11:00;15.27;;;6.95;;
77597;SDS011;66756;42.774;23.354;2023-02-22T02:13:26;13.40;;;6.35;;
77597;SDS011;66756;42.774;23.354;2023-02-22T02:15:55;11.90;;;5.63;;
77597;SDS011;66756;42.774;23.354;2023-02-22T02:18:22;9.27;;;5.38;;
77597;SDS011;66756;42.774;23.354;2023-02-22T02:41:59;14.02;;;7.05;;
77597;SDS011;66756;42.774;23.354;2023-02-22T02:44:42;13.95;;;7.22;;
77597;SDS011;66756;42.774;23.354;2023-02-22T02:47:12;13.77;;;7.13;;
77597;SDS011;66756;42.774;23.354;2023-02-22T02:49:43;14.48;;;6.55;;
77597;SDS011;66756;42.774;23.354;2023-02-22T02:52:11;14.20;;;5.85;;
77597;SDS011;66756;42.774;23.354;2023-02-22T02:54:37;11.07;;;5.43;;
77597;SDS011;66756;42.774;23.354;2023-02-22T02:57:04;13.82;;;6.05;;
77597;SDS011;66756;42.774;23.354;2023-02-22T02:59:31;13.27;;;5.43;;
77597;SDS011;66756;42.774;23.354;2023-02-22T03:02:05;10.70;;;5.07;;
77597;SDS011;66756;42.774;23.354;2023-02-22T03:07:10;13.32;;;5.55;;
77597;SDS011;66756;42.774;23.354;2023-02-22T03:14:51;11.80;;;5.50;;
77597;SDS011;66756;42.774;23.354;2023-02-22T03:20:08;8.02;;;4.13;;
77597;SDS011;66756;42.774;23.354;2023-02-22T03:22:40;9.95;;;4.88;;
77597;SDS011;66756;42.774;23.354;2023-02-22T03:25:21;8.35;;;4.57;;
77597;SDS011;66756;42.774;23.354;2023-02-22T03:27:50;11.82;;;4.93;;
77597;SDS011;66756;42.774;23.354;2023-02-22T03:30:27;10.70;;;5.63;;
77597;SDS011;66756;42.774;23.354;2023-02-22T03:32:58;12.43;;;5.45;;
77597;SDS011;66756;42.774;23.354;2023-02-22T03:35:25;10.18;;;5.90;;
77597;SDS011;66756;42.774;23.354;2023-02-22T03:37:57;11.25;;;4.53;;
77597;SDS011;66756;42.774;23.354;2023-02-22T03:40:26;11.98;;;5.22;;
77597;SDS011;66756;42.774;23.354;2023-02-22T03:42:54;8.77;;;4.65;;
77597;SDS011;66756;42.774;23.354;2023-02-22T03:45:23;11.88;;;5.07;;
77597;SDS011;66756;42.774;23.354;2023-02-22T03:47:50;9.60;;;4.53;;
77597;SDS011;66756;42.774;23.354;2023-02-22T03:52:44;8.45;;;4.47;;
77597;SDS011;66756;42.774;23.354;2023-02-22T03:55:11;12.52;;;5.63;;
77597;SDS011;66756;42.774;23.354;2023-02-22T03:57:40;12.25;;;5.07;;
77597;SDS011;66756;42.774;23.354;2023-02-22T04:00:09;13.15;;;5.82;;
77597;SDS011;66756;42.774;23.354;2023-02-22T04:02:35;11.77;;;5.50;;
77597;SDS011;66756;42.774;23.354;2023-02-22T04:05:02;16.08;;;6.55;;
77597;SDS011;66756;42.774;23.354;2023-02-22T04:07:28;13.43;;;5.85;;
77597;SDS011;66756;42.774;23.354;2023-02-22T04:09:54;19.20;;;8.40;;
77597;SDS011;66756;42.774;23.354;2023-02-22T04:12:20;28.80;;;15.48;;
77597;SDS011;66756;42.774;23.354;2023-02-22T04:14:46;19.92;;;11.10;;
77597;SDS011;66756;42.774;23.354;2023-02-22T04:17:12;20.08;;;11.73;;
77597;SDS011;66756;42.774;23.354;2023-02-22T04:19:38;25.02;;;15.82;;
77597;SDS011;66756;42.774;23.354;2023-02-22T04:22:04;25.05;;;15.15;;
77597;SDS011;66756;42.774;23.354;2023-02-22T04:24:30;21.55;;;13.23;;
77597;SDS011;66756;42.774;23.354;2023-02-22T04:26:56;19.92;;;10.18;;
77597;SDS011;66756;42.774;23.354;2023-02-22T04:29:22;19.02;;;9.30;;
77597;SDS011;66756;42.774;23.354;2023-02-22T04:31:48;16.33;;;8.60;;
77597;SDS011;66756;42.774;23.354;2023-02-22T04:34:14;15.60;;;8.30;;
77597;SDS011;66756;42.774;23.354;2023-02-22T04:36:40;15.25;;;9.13;;
77597;SDS011;66756;42.774;23.354;2023-02-22T04:39:08;17.73;;;8.82;;
77597;SDS011;66756;42.774;23.354;2023-02-22T04:41:34;15.38;;;8.48;;
77597;SDS011;66756;42.774;23.354;2023-02-22T04:44:00;15.38;;;7.25;;
77597;SDS011;66756;42.774;23.354;2023-02-22T04:46:26;17.27;;;8.55;;
77597;SDS011;66756;42.774;23.354;2023-02-22T04:48:53;16.45;;;8.45;;
77597;SDS011;66756;42.774;23.354;2023-02-22T04:51:19;18.50;;;8.93;;
77597;SDS011;66756;42.774;23.354;2023-02-22T04:53:45;16.55;;;7.95;;
77597;SDS011;66756;42.774;23.354;2023-02-22T04:56:11;15.70;;;7.68;;
77597;SDS011;66756;42.774;23.354;2023-02-22T04:58:37;10.85;;;5.72;;
77597;SDS011;66756;42.774;23.354;2023-02-22T05:01:03;14.90;;;6.65;;
77597;SDS011;66756;42.774;23.354;2023-02-22T05:03:29;10.77;;;5.85;;
77597;SDS011;66756;42.774;23.354;2023-02-22T05:05:55;14.05;;;6.60;;
77597;SDS011;66756;42.774;23.354;2023-02-22T05:08:22;15.40;;;7.20;;
77597;SDS011;66756;42.774;23.354;2023-02-22T05:10:48;12.13;;;6.15;;
77597;SDS011;66756;42.774;23.354;2023-02-22T05:13:14;9.23;;;5.80;;
77597;SDS011;66756;42.774;23.354;2023-02-22T05:15:40;11.70;;;6.45;;
77597;SDS011;66756;42.774;23.354;2023-02-22T05:18:06;13.18;;;6.03;;
77597;SDS011;66756;42.774;23.354;2023-02-22T05:20:33;14.18;;;6.70;;
77597;SDS011;66756;42.774;23.354;2023-02-22T05:23:00;13.65;;;6.82;;
77597;SDS011;66756;42.774;23.354;2023-02-22T05:25:26;12.02;;;6.40;;
77597;SDS011;66756;42.774;23.354;2023-02-22T05:27:53;13.82;;;6.13;;
77597;SDS011;66756;42.774;23.354;2023-02-22T05:30:21;10.80;;;5.30;;
77597;SDS011;66756;42.774;23.354;2023-02-22T05:32:48;12.40;;;6.75;;
77597;SDS011;66756;42.774;23.354;2023-02-22T05:35:14;13.65;;;5.85;;
77597;SDS011;66756;42.774;23.354;2023-02-22T05:37:40;13.27;;;6.45;;
77597;SDS011;66756;42.774;23.354;2023-02-22T05:40:07;13.50;;;6.40;;
77597;SDS011;66756;42.774;23.354;2023-02-22T05:42:33;13.18;;;7.15;;
77597;SDS011;66756;42.774;23.354;2023-02-22T05:44:59;15.25;;;7.05;;
77597;SDS011;66756;42.774;23.354;2023-02-22T05:47:25;12.65;;;7.00;;
77597;SDS011;66756;42.774;23.354;2023-02-22T05:49:51;12.48;;;5.70;;
77597;SDS011;66756;42.774;23.354;2023-02-22T05:52:17;13.43;;;6.10;;
77597;SDS011;66756;42.774;23.354;2023-02-22T05:54:43;15.90;;;6.97;;
77597;SDS011;66756;42.774;23.354;2023-02-22T05:57:09;14.32;;;7.78;;
77597;SDS011;66756;42.774;23.354;2023-02-22T05:59:35;19.30;;;7.38;;
77597;SDS011;66756;42.774;23.354;2023-02-22T06:02:01;11.68;;;7.10;;
77597;SDS011;66756;42.774;23.354;2023-02-22T06:04:27;15.63;;;7.53;;
77597;SDS011;66756;42.774;23.354;2023-02-22T06:06:54;17.05;;;9.85;;
77597;SDS011;66756;42.774;23.354;2023-02-22T06:09:20;15.77;;;8.77;;
77597;SDS011;66756;42.774;23.354;2023-02-22T06:11:47;16.77;;;9.43;;
77597;SDS011;66756;42.774;23.354;2023-02-22T06:14:13;17.67;;;8.75;;
77597;SDS011;66756;42.774;23.354;2023-02-22T06:16:39;22.70;;;10.13;;
77597;SDS011;66756;42.774;23.354;2023-02-22T06:19:05;24.95;;;10.05;;
77597;SDS011;66756;42.774;23.354;2023-02-22T06:21:31;21.13;;;11.57;;
77597;SDS011;66756;42.774;23.354;2023-02-22T06:23:57;22.73;;;12.77;;
77597;SDS011;66756;42.774;23.354;2023-02-22T06:26:23;19.45;;;11.85;;
77597;SDS011;66756;42.774;23.354;2023-02-22T06:28:49;20.88;;;9.43;;
77597;SDS011;66756;42.774;23.354;2023-02-22T06:31:15;20.23;;;9.68;;
77597;SDS011;66756;42.774;23.354;2023-02-22T06:33:41;19.85;;;10.23;;
77597;SDS011;66756;42.774;23.354;2023-02-22T06:36:07;16.23;;;9.32;;
77597;SDS011;66756;42.774;23.354;2023-02-22T06:38:33;19.17;;;11.27;;
77597;SDS011;66756;42.774;23.354;2023-02-22T06:40:59;19.60;;;10.27;;
77597;SDS011;66756;42.774;23.354;2023-02-22T06:43:27;24.98;;;12.65;;
77597;SDS011;66756;42.774;23.354;2023-02-22T06:45:53;20.10;;;11.40;;
77597;SDS011;66756;42.774;23.354;2023-02-22T06:48:19;17.05;;;9.65;;
77597;SDS011;66756;42.774;23.354;2023-02-22T06:50:45;21.48;;;10.18;;
77597;SDS011;66756;42.774;23.354;2023-02-22T06:53:11;19.45;;;10.95;;
77597;SDS011;66756;42.774;23.354;2023-02-22T06:55:37;18.27;;;9.98;;
77597;SDS011;66756;42.774;23.354;2023-02-22T06:58:03;20.27;;;9.60;;
77597;SDS011;66756;42.774;23.354;2023-02-22T07:00:30;16.63;;;8.93;;
77597;SDS011;66756;42.774;23.354;2023-02-22T07:02:56;19.40;;;9.38;;
77597;SDS011;66756;42.774;23.354;2023-02-22T07:05:23;19.45;;;9.15;;
77597;SDS011;66756;42.774;23.354;2023-02-22T07:07:50;14.25;;;7.85;;
77597;SDS011;66756;42.774;23.354;2023-02-22T07:10:21;14.82;;;8.35;;
77597;SDS011;66756;42.774;23.354;2023-02-22T07:12:47;17.98;;;9.00;;
77597;SDS011;66756;42.774;23.354;2023-02-22T07:15:13;15.25;;;8.25;;
77597;SDS011;66756;42.774;23.354;2023-02-22T07:17:41;14.07;;;8.43;;
77597;SDS011;66756;42.774;23.354;2023-02-22T07:20:08;16.95;;;8.75;;
77597;SDS011;66756;42.774;23.354;2023-02-22T07:22:35;16.98;;;8.18;;
77597;SDS011;66756;42.774;23.354;2023-02-22T07:25:02;15.88;;;8.73;;
77597;SDS011;66756;42.774;23.354;2023-02-22T07:27:28;14.73;;;8.30;;
77597;SDS011;66756;42.774;23.354;2023-02-22T07:29:54;17.45;;;8.35;;
77597;SDS011;66756;42.774;23.354;2023-02-22T07:32:20;14.70;;;9.45;;
77597;SDS011;66756;42.774;23.354;2023-02-22T07:34:46;13.38;;;7.75;;
77597;SDS011;66756;42.774;23.354;2023-02-22T07:37:12;13.73;;;6.60;;
77597;SDS011;66756;42.774;23.354;2023-02-22T07:39:38;12.90;;;6.82;;
77597;SDS011;66756;42.774;23.354;2023-02-22T07:42:07;11.50;;;6.32;;
77597;SDS011;66756;42.774;23.354;2023-02-22T07:44:33;11.75;;;6.07;;
77597;SDS011;66756;42.774;23.354;2023-02-22T07:46:59;11.85;;;6.25;;
77597;SDS011;66756;42.774;23.354;2023-02-22T07:49:26;9.70;;;5.63;;
77597;SDS011;66756;42.774;23.354;2023-02-22T07:51:52;10.88;;;6.03;;
77597;SDS011;66756;42.774;23.354;2023-02-22T07:54:19;14.38;;;6.63;;
77597;SDS011;66756;42.774;23.354;2023-02-22T07:56:48;12.55;;;6.65;;
77597;SDS011;66756;42.774;23.354;2023-02-22T07:59:14;11.15;;;5.63;;
77597;SDS011;66756;42.774;23.354;2023-02-22T08:01:40;10.95;;;6.55;;
77597;SDS011;66756;42.774;23.354;2023-02-22T08:04:07;8.82;;;5.25;;
77597;SDS011;66756;42.774;23.354;2023-02-22T08:06:33;11.55;;;6.47;;
77597;SDS011;66756;42.774;23.354;2023-02-22T08:08:59;9.43;;;4.65;;
77597;SDS011;66756;42.774;23.354;2023-02-22T08:11:25;10.02;;;4.55;;
77597;SDS011;66756;42.774;23.354;2023-02-22T08:13:51;9.98;;;4.38;;
77597;SDS011;66756;42.774;23.354;2023-02-22T08:16:17;9.43;;;5.13;;
77597;SDS011;66756;42.774;23.354;2023-02-22T08:18:43;8.80;;;4.43;;
77597;SDS011;66756;42.774;23.354;2023-02-22T08:21:09;8.43;;;3.97;;
77597;SDS011;66756;42.774;23.354;2023-02-22T08:23:35;9.98;;;5.00;;
77597;SDS011;66756;42.774;23.354;2023-02-22T08:26:05;10.98;;;5.03;;
77597;SDS011;66756;42.774;23.354;2023-02-22T08:28:31;8.52;;;4.30;;
77597;SDS011;66756;42.774;23.354;2023-02-22T08:30:57;6.97;;;3.95;;
77597;SDS011;66756;42.774;23.354;2023-02-22T08:33:24;9.13;;;4.35;;
77597;SDS011;66756;42.774;23.354;2023-02-22T08:35:50;8.93;;;4.10;;
77597;SDS011;66756;42.774;23.354;2023-02-22T08:40:42;9.13;;;4.95;;
77597;SDS011;66756;42.774;23.354;2023-02-22T08:43:08;8.13;;;4.07;;
77597;SDS011;66756;42.774;23.354;2023-02-22T08:45:34;9.77;;;6.10;;
77597;SDS011;66756;42.774;23.354;2023-02-22T08:48:00;7.20;;;3.80;;
77597;SDS011;66756;42.774;23.354;2023-02-22T08:50:28;7.47;;;3.90;;
77597;SDS011;66756;42.774;23.354;2023-02-22T08:52:56;8.55;;;4.85;;
77597;SDS011;66756;42.774;23.354;2023-02-22T08:55:26;7.05;;;3.88;;
77597;SDS011;66756;42.774;23.354;2023-02-22T08:57:54;7.35;;;3.88;;
77597;SDS011;66756;42.774;23.354;2023-02-22T09:00:20;8.73;;;4.68;;
77597;SDS011;66756;42.774;23.354;2023-02-22T09:02:49;7.30;;;3.40;;
77597;SDS011;66756;42.774;23.354;2023-02-22T09:05:15;6.57;;;4.30;;
77597;SDS011;66756;42.774;23.354;2023-02-22T09:07:42;8.77;;;3.92;;
77597;SDS011;66756;42.774;23.354;2023-02-22T09:10:16;8.20;;;3.38;;
77597;SDS011;66756;42.774;23.354;2023-02-22T09:12:42;6.75;;;3.17;;
77597;SDS011;66756;42.774;23.354;2023-02-22T09:15:09;6.07;;;3.05;;
77597;SDS011;66756;42.774;23.354;2023-02-22T09:17:35;7.15;;;3.15;;
77597;SDS011;66756;42.774;23.354;2023-02-22T09:20:03;7.75;;;4.55;;
77597;SDS011;66756;42.774;23.354;2023-02-22T09:22:29;8.05;;;4.18;;
77597;SDS011;66756;42.774;23.354;2023-02-22T09:24:55;6.15;;;3.15;;
77597;SDS011;66756;42.774;23.354;2023-02-22T09:27:21;5.80;;;3.17;;
77597;SDS011;66756;42.774;23.354;2023-02-22T09:29:47;6.75;;;4.35;;
77597;SDS011;66756;42.774;23.354;2023-02-22T09:32:14;7.38;;;3.05;;
77597;SDS011;66756;42.774;23.354;2023-02-22T09:34:43;7.50;;;3.22;;
77597;SDS011;66756;42.774;23.354;2023-02-22T09:37:12;7.05;;;3.22;;
77597;SDS011;66756;42.774;23.354;2023-02-22T09:39:38;8.25;;;3.67;;
77597;SDS011;66756;42.774;23.354;2023-02-22T09:47:11;7.97;;;4.68;;
77597;SDS011;66756;42.774;23.354;2023-02-22T09:49:40;6.72;;;3.20;;
77597;SDS011;66756;42.774;23.354;2023-02-22T09:52:21;5.70;;;2.95;;
77597;SDS011;66756;42.774;23.354;2023-02-22T09:54:50;7.43;;;4.25;;
77597;SDS011;66756;42.774;23.354;2023-02-22T09:57:24;6.45;;;3.53;;
77597;SDS011;66756;42.774;23.354;2023-02-22T10:02:26;4.65;;;2.70;;
77597;SDS011;66756;42.774;23.354;2023-02-22T10:04:56;3.92;;;1.65;;
77597;SDS011;66756;42.774;23.354;2023-02-22T10:07:27;3.83;;;1.85;;
77597;SDS011;66756;42.774;23.354;2023-02-22T10:09:53;4.72;;;1.13;;
77597;SDS011;66756;42.774;23.354;2023-02-22T10:15:06;3.40;;;1.52;;
77597;SDS011;66756;42.774;23.354;2023-02-22T10:25:19;2.63;;;1.58;;
77597;SDS011;66756;42.774;23.354;2023-02-22T10:27:50;3.25;;;1.00;;
77597;SDS011;66756;42.774;23.354;2023-02-22T10:30:19;4.63;;;1.67;;
77597;SDS011;66756;42.774;23.354;2023-02-22T10:32:46;2.92;;;2.17;;
77597;SDS011;66756;42.774;23.354;2023-02-22T10:35:33;1.95;;;1.17;;
77597;SDS011;66756;42.774;23.354;2023-02-22T10:40:39;2.22;;;1.27;;
77597;SDS011;66756;42.774;23.354;2023-02-22T10:43:08;2.75;;;1.33;;
77597;SDS011;66756;42.774;23.354;2023-02-22T10:45:35;2.83;;;1.38;;
77597;SDS011;66756;42.774;23.354;2023-02-22T10:48:06;3.28;;;1.50;;
77597;SDS011;66756;42.774;23.354;2023-02-22T10:50:32;2.63;;;1.10;;
77597;SDS011;66756;42.774;23.354;2023-02-22T10:53:00;2.30;;;1.48;;
77597;SDS011;66756;42.774;23.354;2023-02-22T10:55:26;2.42;;;1.50;;
77597;SDS011;66756;42.774;23.354;2023-02-22T10:57:57;3.47;;;1.33;;
77597;SDS011;66756;42.774;23.354;2023-02-22T11:03:00;3.03;;;1.90;;
77597;SDS011;66756;42.774;23.354;2023-02-22T11:08:12;1.88;;;1.52;;
77597;SDS011;66756;42.774;23.354;2023-02-22T11:10:39;3.75;;;1.70;;
77597;SDS011;66756;42.774;23.354;2023-02-22T11:15:43;3.80;;;2.20;;
77597;SDS011;66756;42.774;23.354;2023-02-22T11:18:20;2.80;;;1.98;;
77597;SDS011;66756;42.774;23.354;2023-02-22T11:20:47;2.25;;;0.40;;
77597;SDS011;66756;42.774;23.354;2023-02-22T11:23:13;3.20;;;1.73;;
77597;SDS011;66756;42.774;23.354;2023-02-22T11:25:47;3.10;;;1.35;;
77597;SDS011;66756;42.774;23.354;2023-02-22T11:28:20;4.93;;;1.98;;
77597;SDS011;66756;42.774;23.354;2023-02-22T11:30:54;3.22;;;0.50;;
77597;SDS011;66756;42.774;23.354;2023-02-22T11:33:22;2.20;;;1.27;;
77597;SDS011;66756;42.774;23.354;2023-02-22T11:35:59;2.25;;;1.10;;
77597;SDS011;66756;42.774;23.354;2023-02-22T11:38:29;3.65;;;2.10;;
77597;SDS011;66756;42.774;23.354;2023-02-22T11:43:31;2.03;;;1.00;;
77597;SDS011;66756;42.774;23.354;2023-02-22T11:46:20;2.10;;;0.60;;
77597;SDS011;66756;42.774;23.354;2023-02-22T11:48:52;3.97;;;1.85;;
77597;SDS011;66756;42.774;23.354;2023-02-22T11:58:51;3.05;;;1.80;;
77597;SDS011;66756;42.774;23.354;2023-02-22T12:01:30;2.72;;;1.58;;
77597;SDS011;66756;42.774;23.354;2023-02-22T12:14:32;3.17;;;2.13;;
77597;SDS011;66756;42.774;23.354;2023-02-22T12:22:18;2.88;;;1.77;;
77597;SDS011;66756;42.774;23.354;2023-02-22T12:24:52;2.08;;;0.75;;
77597;SDS011;66756;42.774;23.354;2023-02-22T12:27:27;2.97;;;1.13;;
77597;SDS011;66756;42.774;23.354;2023-02-22T12:30:00;1.95;;;1.55;;
77597;SDS011;66756;42.774;23.354;2023-02-22T12:32:31;3.25;;;1.80;;
77597;SDS011;66756;42.774;23.354;2023-02-22T12:35:03;2.55;;;1.40;;
77597;SDS011;66756;42.774;23.354;2023-02-22T12:43:01;1.60;;;0.60;;
77597;SDS011;66756;42.774;23.354;2023-02-22T12:45:31;4.55;;;2.10;;
77597;SDS011;66756;42.774;23.354;2023-02-22T12:48:08;2.67;;;0.93;;
77597;SDS011;66756;42.774;23.354;2023-02-22T12:50:42;3.63;;;1.98;;
77597;SDS011;66756;42.774;23.354;2023-02-22T12:55:49;1.52;;;0.45;;
77597;SDS011;66756;42.774;23.354;2023-02-22T13:05:56;1.65;;;0.82;;
77597;SDS011;66756;42.774;23.354;2023-02-22T13:08:35;2.72;;;1.55;;
77597;SDS011;66756;42.774;23.354;2023-02-22T13:15:58;3.08;;;0.88;;
77597;SDS011;66756;42.774;23.354;2023-02-22T13:21:17;2.75;;;1.13;;
77597;SDS011;66756;42.774;23.354;2023-02-22T13:23:52;1.92;;;1.00;;
77597;SDS011;66756;42.774;23.354;2023-02-22T13:26:27;1.40;;;0.95;;
77597;SDS011;66756;42.774;23.354;2023-02-22T13:31:29;1.98;;;1.77;;
77597;SDS011;66756;42.774;23.354;2023-02-22T13:39:32;1.58;;;1.20;;
77597;SDS011;66756;42.774;23.354;2023-02-22T13:42:11;1.63;;;0.95;;
77597;SDS011;66756;42.774;23.354;2023-02-22T13:44:45;3.30;;;0.93;;
77597;SDS011;66756;42.774;23.354;2023-02-22T13:49:46;2.55;;;0.55;;
77597;SDS011;66756;42.774;23.354;2023-02-22T13:52:19;1.55;;;0.98;;
77597;SDS011;66756;42.774;23.354;2023-02-22T13:54:48;1.85;;;1.67;;
77597;SDS011;66756;42.774;23.354;2023-02-22T13:59:47;1.52;;;1.10;;
77597;SDS011;66756;42.774;23.354;2023-02-22T14:02:30;2.05;;;1.40;;
77597;SDS011;66756;42.774;23.354;2023-02-22T14:04:57;1.63;;;1.02;;
77597;SDS011;66756;42.774;23.354;2023-02-22T14:09:53;1.38;;;1.00;;
77597;SDS011;66756;42.774;23.354;2023-02-22T14:17:42;2.47;;;1.08;;
77597;SDS011;66756;42.774;23.354;2023-02-22T14:22:43;2.75;;;0.50;;
77597;SDS011;66756;42.774;23.354;2023-02-22T14:27:54;2.50;;;1.85;;
77597;SDS011;66756;42.774;23.354;2023-02-22T14:30:25;2.42;;;1.35;;
77597;SDS011;66756;42.774;23.354;2023-02-22T14:35:17;2.70;;;1.35;;
77597;SDS011;66756;42.774;23.354;2023-02-22T14:37:53;3.00;;;1.63;;
77597;SDS011;66756;42.774;23.354;2023-02-22T14:40:29;3.65;;;1.65;;
77597;SDS011;66756;42.774;23.354;2023-02-22T14:43:00;3.08;;;1.50;;
77597;SDS011;66756;42.774;23.354;2023-02-22T14:45:28;3.00;;;1.85;;
77597;SDS011;66756;42.774;23.354;2023-02-22T14:48:00;2.58;;;2.28;;
77597;SDS011;66756;42.774;23.354;2023-02-22T15:00:57;4.60;;;1.25;;
77597;SDS011;66756;42.774;23.354;2023-02-22T15:03:31;3.63;;;2.83;;
77597;SDS011;66756;42.774;23.354;2023-02-22T15:08:43;3.60;;;2.55;;
77597;SDS011;66756;42.774;23.354;2023-02-22T15:11:22;5.07;;;2.42;;
77597;SDS011;66756;42.774;23.354;2023-02-22T15:13:52;2.95;;;2.40;;
77597;SDS011;66756;42.774;23.354;2023-02-22T15:16:19;3.33;;;2.40;;
77597;SDS011;66756;42.774;23.354;2023-02-22T15:18:46;3.88;;;2.65;;
77597;SDS011;66756;42.774;23.354;2023-02-22T15:21:14;3.33;;;1.50;;
77597;SDS011;66756;42.774;23.354;2023-02-22T15:23:44;3.25;;;2.58;;
77597;SDS011;66756;42.774;23.354;2023-02-22T15:26:32;3.67;;;2.58;;
77597;SDS011;66756;42.774;23.354;2023-02-22T15:29:09;3.03;;;2.40;;
77597;SDS011;66756;42.774;23.354;2023-02-22T15:31:38;3.28;;;2.97;;
77597;SDS011;66756;42.774;23.354;2023-02-22T15:34:14;5.75;;;2.65;;
77597;SDS011;66756;42.774;23.354;2023-02-22T15:36:46;3.88;;;2.75;;
77597;SDS011;66756;42.774;23.354;2023-02-22T15:41:44;4.07;;;3.03;;
77597;SDS011;66756;42.774;23.354;2023-02-22T15:44:10;4.32;;;1.58;;
77597;SDS011;66756;42.774;23.354;2023-02-22T15:46:39;4.53;;;3.80;;
77597;SDS011;66756;42.774;23.354;2023-02-22T15:51:35;6.45;;;3.47;;
77597;SDS011;66756;42.774;23.354;2023-02-22T15:54:02;6.40;;;4.10;;
77597;SDS011;66756;42.774;23.354;2023-02-22T15:56:30;4.93;;;3.60;;
77597;SDS011;66756;42.774;23.354;2023-02-22T15:59:10;5.57;;;2.92;;
77597;SDS011;66756;42.774;23.354;2023-02-22T16:01:37;7.38;;;5.30;;
77597;SDS011;66756;42.774;23.354;2023-02-22T16:04:04;8.93;;;6.13;;
77597;SDS011;66756;42.774;23.354;2023-02-22T16:06:31;9.88;;;8.48;;
77597;SDS011;66756;42.774;23.354;2023-02-22T16:08:59;8.52;;;6.82;;
77597;SDS011;66756;42.774;23.354;2023-02-22T16:11:30;7.30;;;5.50;;
77597;SDS011;66756;42.774;23.354;2023-02-22T16:14:03;6.38;;;3.55;;
77597;SDS011;66756;42.774;23.354;2023-02-22T16:16:31;6.95;;;4.43;;
77597;SDS011;66756;42.774;23.354;2023-02-22T16:21:53;6.97;;;5.00;;
77597;SDS011;66756;42.774;23.354;2023-02-22T16:24:32;9.45;;;3.92;;
77597;SDS011;66756;42.774;23.354;2023-02-22T16:29:39;8.70;;;3.60;;
77597;SDS011;66756;42.774;23.354;2023-02-22T16:32:06;9.95;;;4.50;;
77597;SDS011;66756;42.774;23.354;2023-02-22T16:34:32;8.55;;;4.28;;
77597;SDS011;66756;42.774;23.354;2023-02-22T16:36:58;7.18;;;4.32;;
77597;SDS011;66756;42.774;23.354;2023-02-22T16:39:29;6.57;;;4.38;;
77597;SDS011;66756;42.774;23.354;2023-02-22T16:41:59;6.45;;;3.15;;
77597;SDS011;66756;42.774;23.354;2023-02-22T16:44:26;6.35;;;3.38;;
77597;SDS011;66756;42.774;23.354;2023-02-22T16:46:53;5.85;;;3.15;;
77597;SDS011;66756;42.774;23.354;2023-02-22T16:49:20;6.53;;;3.47;;
77597;SDS011;66756;42.774;23.354;2023-02-22T16:51:54;7.95;;;4.35;;
77597;SDS011;66756;42.774;23.354;2023-02-22T16:54:25;8.75;;;3.78;;
77597;SDS011;66756;42.774;23.354;2023-02-22T16:56:52;12.05;;;4.75;;
77597;SDS011;66756;42.774;23.354;2023-02-22T16:59:19;15.82;;;7.97;;
77597;SDS011;66756;42.774;23.354;2023-02-22T17:01:45;29.23;;;13.93;;
77597;SDS011;66756;42.774;23.354;2023-02-22T17:04:16;96.22;;;42.17;;
77597;SDS011;66756;42.774;23.354;2023-02-22T17:06:42;74.15;;;36.20;;
77597;SDS011;66756;42.774;23.354;2023-02-22T17:09:09;38.40;;;17.77;;
77597;SDS011;66756;42.774;23.354;2023-02-22T17:11:36;19.98;;;12.32;;
77597;SDS011;66756;42.774;23.354;2023-02-22T17:14:02;16.25;;;9.02;;
77597;SDS011;66756;42.774;23.354;2023-02-22T17:16:28;15.00;;;8.77;;
77597;SDS011;66756;42.774;23.354;2023-02-22T17:18:54;14.77;;;7.32;;